Time,TemperatureF,DewpointF,PressureIn,WindDirection,WindDirectionDegrees,WindSpeedMPH,WindSpeedGustMPH,Humidity,HourlyPrecipIn,Conditions,Clouds,dailyrainin,SoftwareType,DateUTC
2013-07-23 00:00:00,72.1,69.0,29.87,SW,225,0.0,1.0,90,0.00,,---,0.00,VWS V14.01,2013-07-23 04:00:00,
2013-07-23 00:01:00,72.1,69.0,29.87,SW,225,0.0,1.0,90,0.00,,---,0.00,VWS V14.01,2013-07-23 04:01:00,
2013-07-23 00:05:00,71.7,68.9,29.87,SW,232,0.0,2.0,91,0.00,,---,0.00,VWS V14.01,2013-07-23 04:05:00,
2013-07-23 00:06:00,71.7,68.9,29.87,SW,225,0.0,1.0,91,0.00,,---,0.00,VWS V14.01,2013-07-23 04:06:00,
2013-07-23 00:10:00,71.9,68.8,29.86,SW,233,1.0,2.0,90,0.00,,---,0.00,VWS V14.01,2013-07-23 04:10:00,
2013-07-23 00:11:00,71.4,69.0,29.87,SW,225,0.0,0.0,92,0.00,,---,0.00,VWS V14.01,2013-07-23 04:11:00,
2013-07-23 00:15:00,72.2,69.1,29.87,SSW,213,2.0,4.0,90,0.00,,---,0.00,VWS V14.01,2013-07-23 04:15:00,
2013-07-23 00:16:00,70.9,68.8,29.87,SW,225,0.0,0.0,93,0.00,,---,0.00,VWS V14.01,2013-07-23 04:16:00,
2013-07-23 00:20:00,72.4,69.3,29.87,WSW,243,2.0,3.0,90,0.00,,---,0.00,VWS V14.01,2013-07-23 04:20:00,
2013-07-23 00:21:00,70.4,68.6,29.87,SW,218,0.0,0.0,94,0.00,,---,0.00,VWS V14.01,2013-07-23 04:21:00,
2013-07-23 00:25:00,72.4,69.3,29.87,WSW,250,1.0,2.0,90,0.00,,---,0.00,VWS V14.01,2013-07-23 04:25:00,
2013-07-23 00:26:00,70.0,68.2,29.87,SW,218,0.0,0.0,94,0.00,,---,0.00,VWS V14.01,2013-07-23 04:26:00,
2013-07-23 00:30:00,72.4,69.3,29.87,WSW,252,0.0,1.0,90,0.00,,---,0.00,VWS V14.01,2013-07-23 04:30:00,
2013-07-23 00:31:00,69.6,68.1,29.88,SW,218,0.0,0.0,95,0.00,,---,0.00,VWS V14.01,2013-07-23 04:31:00,
2013-07-23 00:35:00,72.5,69.4,29.87,West,264,1.0,4.0,90,0.00,,---,0.00,VWS V14.01,2013-07-23 04:35:00,
2013-07-23 00:36:00,69.3,67.8,29.88,SW,217,0.0,0.0,95,0.00,,---,0.00,VWS V14.01,2013-07-23 04:36:00,
2013-07-23 00:40:00,72.7,69.3,29.87,WSW,252,0.0,3.0,89,0.00,,---,0.00,VWS V14.01,2013-07-23 04:40:00,
2013-07-23 00:41:00,69.2,68.0,29.88,SW,218,0.0,0.0,96,0.00,,---,0.00,VWS V14.01,2013-07-23 04:41:00,
2013-07-23 00:45:00,72.7,69.3,29.87,West,270,0.0,3.0,89,0.00,,---,0.00,VWS V14.01,2013-07-23 04:45:00,
2013-07-23 00:46:00,69.1,67.9,29.88,SW,218,0.0,0.0,96,0.00,,---,0.00,VWS V14.01,2013-07-23 04:46:00,
2013-07-23 00:50:00,72.7,69.3,29.87,SW,231,1.0,2.0,89,0.00,,---,0.00,VWS V14.01,2013-07-23 04:50:00,
2013-07-23 00:51:00,68.9,67.7,29.88,East,98,0.0,0.0,96,0.00,,---,0.00,VWS V14.01,2013-07-23 04:51:00,
2013-07-23 00:55:00,72.4,69.3,29.87,SW,225,0.0,2.0,90,0.00,,---,0.00,VWS V14.01,2013-07-23 04:55:00,
2013-07-23 00:56:00,68.8,67.9,29.88,East,97,0.0,0.0,97,0.00,,---,0.00,VWS V14.01,2013-07-23 04:56:00,
2013-07-23 01:00:00,72.1,69.0,29.87,SW,225,0.0,1.0,90,0.00,,---,0.00,VWS V14.01,2013-07-23 05:00:00,
2013-07-23 01:01:00,68.7,67.8,29.88,East,98,0.0,1.0,97,0.00,,---,0.00,VWS V14.01,2013-07-23 05:01:00,
2013-07-23 01:05:00,71.9,69.1,29.87,SW,225,0.0,1.0,91,0.00,,---,0.00,VWS V14.01,2013-07-23 05:05:00,
2013-07-23 01:06:00,68.7,67.8,29.88,East,98,0.0,1.0,97,0.00,,---,0.00,VWS V14.01,2013-07-23 05:06:00,
2013-07-23 01:10:00,71.5,69.1,29.87,SW,225,0.0,1.0,92,0.00,,---,0.00,VWS V14.01,2013-07-23 05:10:00,
2013-07-23 01:11:00,68.6,67.7,29.88,WSW,246,1.0,1.0,97,0.00,,---,0.00,VWS V14.01,2013-07-23 05:11:00,
2013-07-23 01:15:00,71.0,68.9,29.87,SW,225,0.0,0.0,93,0.00,,---,0.00,VWS V14.01,2013-07-23 05:15:00,
2013-07-23 01:16:00,68.5,67.6,29.88,SW,227,0.0,0.0,97,0.00,,---,0.00,VWS V14.01,2013-07-23 05:16:00,
2013-07-23 01:20:00,70.5,68.7,29.87,SW,217,0.0,1.0,94,0.00,,---,0.00,VWS V14.01,2013-07-23 05:20:00,
2013-07-23 01:21:00,68.7,68.1,29.88,SW,227,0.0,0.0,98,0.00,,---,0.00,VWS V14.01,2013-07-23 05:21:00,
2013-07-23 01:25:00,70.1,68.3,29.87,SW,218,0.0,0.0,94,0.00,,---,0.00,VWS V14.01,2013-07-23 05:25:00,
2013-07-23 01:26:00,68.6,67.7,29.88,SW,227,0.0,0.0,97,0.00,,---,0.00,VWS V14.01,2013-07-23 05:26:00,
2013-07-23 01:30:00,69.7,68.2,29.87,SW,218,0.0,0.0,95,0.00,,---,0.00,VWS V14.01,2013-07-23 05:30:00,
2013-07-23 01:31:00,68.4,67.5,29.87,SW,227,0.0,0.0,97,0.00,,---,0.00,VWS V14.01,2013-07-23 05:31:00,
2013-07-23 01:35:00,69.4,67.9,29.88,SW,218,0.0,0.0,95,0.00,,---,0.00,VWS V14.01,2013-07-23 05:35:00,
2013-07-23 01:36:00,68.4,67.5,29.88,SW,227,0.0,0.0,97,0.00,,---,0.00,VWS V14.01,2013-07-23 05:36:00,
2013-07-23 01:40:00,69.3,68.1,29.88,SW,218,0.0,1.0,96,0.00,,---,0.00,VWS V14.01,2013-07-23 05:40:00,
2013-07-23 01:41:00,68.2,67.6,29.88,SW,226,0.0,0.0,98,0.00,,---,0.00,VWS V14.01,2013-07-23 05:41:00,
2013-07-23 01:45:00,69.2,68.3,29.88,SW,218,0.0,0.0,97,0.00,,---,0.00,VWS V14.01,2013-07-23 05:45:00,
2013-07-23 01:46:00,68.1,67.5,29.88,SW,227,0.0,0.0,98,0.00,,---,0.00,VWS V14.01,2013-07-23 05:46:00,
2013-07-23 01:50:00,69.0,67.8,29.88,East,98,0.0,1.0,96,0.00,,---,0.00,VWS V14.01,2013-07-23 05:50:00,
2013-07-23 01:51:00,68.2,67.6,29.88,SW,227,0.0,0.0,98,0.00,,---,0.00,VWS V14.01,2013-07-23 05:51:00,
2013-07-23 01:55:00,68.8,67.9,29.88,East,98,0.0,0.0,97,0.00,,---,0.00,VWS V14.01,2013-07-23 05:55:00,
2013-07-23 01:57:00,68.1,67.5,29.88,SW,227,0.0,0.0,98,0.00,,---,0.00,VWS V14.01,2013-07-23 05:57:00,
2013-07-23 02:00:00,68.7,67.8,29.88,East,98,0.0,0.0,97,0.00,,---,0.00,VWS V14.01,2013-07-23 06:00:00,
2013-07-23 02:02:00,68.1,67.5,29.88,SW,227,0.0,0.0,98,0.00,,---,0.00,VWS V14.01,2013-07-23 06:02:00,
2013-07-23 02:05:00,68.8,67.9,29.88,East,98,1.0,1.0,97,0.00,,---,0.00,VWS V14.01,2013-07-23 06:05:00,
2013-07-23 02:07:00,68.0,67.4,29.88,SW,227,0.0,0.0,98,0.00,,---,0.00,VWS V14.01,2013-07-23 06:07:00,
2013-07-23 02:10:00,68.6,67.7,29.88,East,98,0.0,1.0,97,0.00,,---,0.00,VWS V14.01,2013-07-23 06:10:00,
2013-07-23 02:12:00,68.0,67.4,29.88,SW,227,0.0,0.0,98,0.00,,---,0.00,VWS V14.01,2013-07-23 06:12:00,
2013-07-23 02:15:00,68.6,67.7,29.88,SW,226,0.0,2.0,97,0.00,,---,0.00,VWS V14.01,2013-07-23 06:15:00,
2013-07-23 02:17:00,68.0,67.4,29.87,SW,227,0.0,0.0,98,0.00,,---,0.00,VWS V14.01,2013-07-23 06:17:00,
2013-07-23 02:20:00,68.6,67.7,29.88,SW,227,0.0,1.0,97,0.00,,---,0.00,VWS V14.01,2013-07-23 06:20:00,
2013-07-23 02:22:00,67.9,67.3,29.88,SW,227,0.0,0.0,98,0.00,,---,0.00,VWS V14.01,2013-07-23 06:22:00,
2013-07-23 02:25:00,68.6,67.7,29.88,SW,227,0.0,1.0,97,0.00,,---,0.00,VWS V14.01,2013-07-23 06:25:00,
2013-07-23 02:27:00,68.0,67.4,29.88,SW,227,0.0,0.0,98,0.00,,---,0.00,VWS V14.01,2013-07-23 06:27:00,
2013-07-23 02:30:00,68.5,67.6,29.88,SW,227,0.0,0.0,97,0.00,,---,0.00,VWS V14.01,2013-07-23 06:30:00,
2013-07-23 02:32:00,68.1,67.8,29.88,SW,227,0.0,0.0,99,0.00,,---,0.00,VWS V14.01,2013-07-23 06:32:00,
2013-07-23 02:35:00,68.4,67.5,29.88,SW,227,0.0,1.0,97,0.00,,---,0.00,VWS V14.01,2013-07-23 06:35:00,
2013-07-23 02:37:00,68.2,67.9,29.88,SW,227,0.0,0.0,99,0.00,,---,0.00,VWS V14.01,2013-07-23 06:37:00,
2013-07-23 02:40:00,68.3,67.7,29.88,SW,227,0.0,0.0,98,0.00,,---,0.00,VWS V14.01,2013-07-23 06:40:00,
2013-07-23 02:42:00,68.3,68.0,29.88,SW,227,0.0,0.0,99,0.00,,---,0.00,VWS V14.01,2013-07-23 06:42:00,
2013-07-23 02:45:00,68.2,67.6,29.88,SW,227,0.0,0.0,98,0.00,,---,0.00,VWS V14.01,2013-07-23 06:45:00,
2013-07-23 02:47:00,68.3,68.0,29.88,SW,226,0.0,0.0,99,0.00,,---,0.00,VWS V14.01,2013-07-23 06:47:00,
2013-07-23 02:50:00,68.2,67.6,29.88,SW,227,0.0,0.0,98,0.00,,---,0.00,VWS V14.01,2013-07-23 06:50:00,
2013-07-23 02:52:00,68.6,68.3,29.88,SW,227,0.0,0.0,99,0.00,,---,0.00,VWS V14.01,2013-07-23 06:52:00,
2013-07-23 02:55:00,68.1,67.5,29.88,SW,227,0.0,0.0,98,0.00,,---,0.00,VWS V14.01,2013-07-23 06:55:00,
2013-07-23 02:57:00,68.7,68.4,29.88,SW,226,0.0,0.0,99,0.00,,---,0.00,VWS V14.01,2013-07-23 06:57:00,
2013-07-23 03:00:00,68.0,67.4,29.88,SW,227,0.0,0.0,98,0.00,,---,0.00,VWS V14.01,2013-07-23 07:00:00,
2013-07-23 03:02:00,69.0,68.4,29.87,SW,226,0.0,0.0,98,0.00,,---,0.00,VWS V14.01,2013-07-23 07:02:00,
2013-07-23 03:05:00,68.0,67.4,29.88,SW,227,0.0,0.0,98,0.00,,---,0.00,VWS V14.01,2013-07-23 07:05:00,
2013-07-23 03:07:00,69.1,68.5,29.87,SW,227,0.0,0.0,98,0.00,,---,0.00,VWS V14.01,2013-07-23 07:07:00,
2013-07-23 03:10:00,68.0,67.4,29.88,SW,227,0.0,0.0,98,0.00,,---,0.00,VWS V14.01,2013-07-23 07:10:00,
2013-07-23 03:12:00,69.1,68.5,29.87,SW,227,0.0,0.0,98,0.00,,---,0.00,VWS V14.01,2013-07-23 07:12:00,
2013-07-23 03:15:00,68.0,67.4,29.87,SW,227,0.0,0.0,98,0.00,,---,0.00,VWS V14.01,2013-07-23 07:15:00,
2013-07-23 03:17:00,68.9,68.0,29.87,SW,226,0.0,0.0,97,0.00,,---,0.00,VWS V14.01,2013-07-23 07:17:00,
2013-07-23 03:20:00,68.0,67.4,29.88,SW,227,0.0,0.0,98,0.00,,---,0.00,VWS V14.01,2013-07-23 07:20:00,
2013-07-23 03:22:00,68.8,68.2,29.87,SW,226,0.0,0.0,98,0.00,,---,0.00,VWS V14.01,2013-07-23 07:22:00,
2013-07-23 03:25:00,67.9,67.3,29.88,SW,227,0.0,0.0,98,0.00,,---,0.00,VWS V14.01,2013-07-23 07:25:00,
2013-07-23 03:27:00,68.6,67.7,29.87,SW,227,0.0,0.0,97,0.00,,---,0.00,VWS V14.01,2013-07-23 07:27:00,
2013-07-23 03:30:00,68.1,67.8,29.87,SW,227,0.0,0.0,99,0.00,,---,0.00,VWS V14.01,2013-07-23 07:30:00,
2013-07-23 03:32:00,68.4,67.8,29.87,SW,227,0.0,0.0,98,0.00,,---,0.00,VWS V14.01,2013-07-23 07:32:00,
2013-07-23 03:35:00,68.1,67.5,29.88,SW,227,0.0,0.0,98,0.00,,---,0.00,VWS V14.01,2013-07-23 07:35:00,
2013-07-23 03:37:00,68.4,67.8,29.88,SW,227,0.0,0.0,98,0.00,,---,0.00,VWS V14.01,2013-07-23 07:37:00,
2013-07-23 03:40:00,68.3,68.0,29.88,SW,227,0.0,0.0,99,0.00,,---,0.00,VWS V14.01,2013-07-23 07:40:00,
2013-07-23 03:42:00,68.3,67.7,29.87,SW,226,0.0,0.0,98,0.00,,---,0.00,VWS V14.01,2013-07-23 07:42:00,
2013-07-23 03:45:00,68.3,68.0,29.88,SW,226,0.0,0.0,99,0.00,,---,0.00,VWS V14.01,2013-07-23 07:45:00,
2013-07-23 03:47:00,68.2,67.6,29.88,SW,226,0.0,1.0,98,0.00,,---,0.00,VWS V14.01,2013-07-23 07:47:00,
2013-07-23 03:50:00,68.4,68.1,29.88,SW,226,0.0,1.0,99,0.00,,---,0.00,VWS V14.01,2013-07-23 07:50:00,
2013-07-23 03:52:00,68.3,67.7,29.87,ENE,75,0.0,2.0,98,0.00,,---,0.00,VWS V14.01,2013-07-23 07:52:00,
2013-07-23 03:55:00,68.6,68.3,29.88,SW,226,0.0,0.0,99,0.00,,---,0.00,VWS V14.01,2013-07-23 07:55:00,
2013-07-23 03:57:00,68.5,67.9,29.87,SSW,195,0.0,2.0,98,0.00,,---,0.00,VWS V14.01,2013-07-23 07:57:00,
2013-07-23 04:00:00,68.9,68.6,29.88,SW,227,0.0,0.0,99,0.00,,---,0.00,VWS V14.01,2013-07-23 08:00:00,
2013-07-23 04:02:00,68.7,68.1,29.87,SSW,195,0.0,0.0,98,0.00,,---,0.00,VWS V14.01,2013-07-23 08:02:00,
2013-07-23 04:05:00,69.1,68.5,29.87,SW,227,0.0,0.0,98,0.00,,---,0.00,VWS V14.01,2013-07-23 08:05:00,
2013-07-23 04:07:00,68.6,68.0,29.87,SSW,195,0.0,0.0,98,0.00,,---,0.00,VWS V14.01,2013-07-23 08:07:00,
2013-07-23 04:10:00,69.1,68.5,29.87,SW,227,0.0,0.0,98,0.00,,---,0.00,VWS V14.01,2013-07-23 08:10:00,
2013-07-23 04:12:00,68.5,67.9,29.87,SSW,195,0.0,0.0,98,0.00,,---,0.00,VWS V14.01,2013-07-23 08:12:00,
2013-07-23 04:15:00,69.0,68.1,29.87,SW,227,0.0,0.0,97,0.00,,---,0.00,VWS V14.01,2013-07-23 08:15:00,
2013-07-23 04:17:00,68.4,67.8,29.87,SSW,195,0.0,0.0,98,0.00,,---,0.00,VWS V14.01,2013-07-23 08:17:00,
2013-07-23 04:20:00,68.8,67.9,29.87,SW,226,0.0,1.0,97,0.00,,---,0.00,VWS V14.01,2013-07-23 08:20:00,
2013-07-23 04:22:00,68.4,67.8,29.87,SSW,195,0.0,0.0,98,0.00,,---,0.00,VWS V14.01,2013-07-23 08:22:00,
2013-07-23 04:25:00,68.7,68.1,29.87,SW,226,0.0,0.0,98,0.00,,---,0.00,VWS V14.01,2013-07-23 08:25:00,
2013-07-23 04:27:00,68.3,67.7,29.87,SSW,195,0.0,0.0,98,0.00,,---,0.00,VWS V14.01,2013-07-23 08:27:00,
2013-07-23 04:30:00,68.5,67.9,29.87,SW,227,0.0,1.0,98,0.00,,---,0.00,VWS V14.01,2013-07-23 08:30:00,
2013-07-23 04:32:00,68.3,67.7,29.87,SSW,195,0.0,0.0,98,0.00,,---,0.00,VWS V14.01,2013-07-23 08:32:00,
2013-07-23 04:35:00,68.4,67.8,29.88,SW,227,0.0,0.0,98,0.00,,---,0.00,VWS V14.01,2013-07-23 08:35:00,
2013-07-23 04:37:00,68.1,67.5,29.88,SSW,195,0.0,0.0,98,0.00,,---,0.00,VWS V14.01,2013-07-23 08:37:00,
2013-07-23 04:40:00,68.3,67.7,29.88,SW,227,0.0,0.0,98,0.00,,---,0.00,VWS V14.01,2013-07-23 08:40:00,
2013-07-23 04:42:00,68.1,67.5,29.88,SSW,195,0.0,0.0,98,0.00,,---,0.00,VWS V14.01,2013-07-23 08:42:00,
2013-07-23 04:45:00,68.2,67.6,29.88,SW,227,0.0,1.0,98,0.00,,---,0.00,VWS V14.01,2013-07-23 08:45:00,
2013-07-23 04:47:00,68.1,67.8,29.88,SSW,195,0.0,0.0,99,0.00,,---,0.00,VWS V14.01,2013-07-23 08:47:00,
2013-07-23 04:50:00,68.3,67.7,29.87,ENE,75,2.0,3.0,98,0.00,,---,0.00,VWS V14.01,2013-07-23 08:50:00,
2013-07-23 04:52:00,68.2,67.9,29.88,SSW,195,0.0,0.0,99,0.00,,---,0.00,VWS V14.01,2013-07-23 08:52:00,
2013-07-23 04:55:00,68.4,67.8,29.87,SW,221,1.0,3.0,98,0.00,,---,0.00,VWS V14.01,2013-07-23 08:55:00,
2013-07-23 04:57:00,68.5,68.2,29.88,SW,217,0.0,1.0,99,0.00,,---,0.00,VWS V14.01,2013-07-23 08:57:00,
2013-07-23 05:00:00,68.7,68.1,29.87,SSW,195,0.0,2.0,98,0.00,,---,0.00,VWS V14.01,2013-07-23 09:00:00,
2013-07-23 05:02:00,68.8,68.5,29.88,SW,217,0.0,1.0,99,0.00,,---,0.00,VWS V14.01,2013-07-23 09:02:00,
2013-07-23 05:05:00,68.6,67.7,29.87,SSW,195,0.0,0.0,97,0.00,,---,0.00,VWS V14.01,2013-07-23 09:05:00,
2013-07-23 05:07:00,68.9,68.6,29.88,SW,216,0.0,0.0,99,0.00,,---,0.00,VWS V14.01,2013-07-23 09:07:00,
2013-07-23 05:10:00,68.5,67.9,29.87,SSW,195,0.0,0.0,98,0.00,,---,0.00,VWS V14.01,2013-07-23 09:10:00,
2013-07-23 05:12:00,68.9,68.3,29.88,SW,217,0.0,0.0,98,0.00,,---,0.00,VWS V14.01,2013-07-23 09:12:00,
2013-07-23 05:15:00,68.5,67.9,29.87,SSW,195,0.0,0.0,98,0.00,,---,0.00,VWS V14.01,2013-07-23 09:15:00,
2013-07-23 05:17:00,68.9,68.3,29.88,SW,216,0.0,0.0,98,0.00,,---,0.00,VWS V14.01,2013-07-23 09:17:00,
2013-07-23 05:20:00,68.4,67.8,29.87,SSW,195,0.0,0.0,98,0.00,,---,0.00,VWS V14.01,2013-07-23 09:20:00,
2013-07-23 05:22:00,68.8,68.2,29.88,SW,217,0.0,0.0,98,0.00,,---,0.00,VWS V14.01,2013-07-23 09:22:00,
2013-07-23 05:25:00,68.4,67.8,29.87,SSW,195,0.0,0.0,98,0.00,,---,0.00,VWS V14.01,2013-07-23 09:25:00,
2013-07-23 05:27:00,68.8,68.5,29.88,SW,217,0.0,0.0,99,0.00,,---,0.00,VWS V14.01,2013-07-23 09:27:00,
2013-07-23 05:30:00,68.3,67.7,29.87,SSW,195,0.0,0.0,98,0.00,,---,0.00,VWS V14.01,2013-07-23 09:30:00,
2013-07-23 05:32:00,68.8,68.5,29.88,SW,217,0.0,0.0,99,0.00,,---,0.00,VWS V14.01,2013-07-23 09:32:00,
2013-07-23 05:35:00,68.2,67.6,29.87,SSW,195,0.0,0.0,98,0.00,,---,0.00,VWS V14.01,2013-07-23 09:35:00,
2013-07-23 05:37:00,68.9,68.6,29.88,SW,217,0.0,0.0,99,0.00,,---,0.00,VWS V14.01,2013-07-23 09:37:00,
2013-07-23 05:40:00,68.1,67.5,29.88,SSW,195,0.0,0.0,98,0.00,,---,0.00,VWS V14.01,2013-07-23 09:40:00,
2013-07-23 05:42:00,69.0,68.7,29.88,SW,217,0.0,0.0,99,0.00,,---,0.00,VWS V14.01,2013-07-23 09:42:00,
2013-07-23 05:45:00,68.1,67.8,29.88,SSW,195,0.0,0.0,99,0.00,,---,0.00,VWS V14.01,2013-07-23 09:45:00,
2013-07-23 05:47:00,69.1,68.8,29.88,SW,216,0.0,0.0,99,0.00,,---,0.00,VWS V14.01,2013-07-23 09:47:00,
2013-07-23 05:50:00,68.2,67.9,29.88,SSW,195,0.0,0.0,99,0.00,,---,0.00,VWS V14.01,2013-07-23 09:50:00,
2013-07-23 05:52:00,69.2,68.9,29.88,SW,216,0.0,1.0,99,0.00,,---,0.00,VWS V14.01,2013-07-23 09:52:00,
2013-07-23 05:55:00,68.3,68.0,29.88,SW,214,0.0,1.0,99,0.00,,---,0.00,VWS V14.01,2013-07-23 09:55:00,
2013-07-23 05:57:00,69.2,68.9,29.88,SE,141,0.0,1.0,99,0.00,,---,0.00,VWS V14.01,2013-07-23 09:57:00,
2013-07-23 06:00:00,68.6,68.3,29.88,SW,217,0.0,1.0,99,0.00,,---,0.00,VWS V14.01,2013-07-23 10:00:00,
2013-07-23 06:02:00,69.2,68.6,29.88,SE,141,0.0,0.0,98,0.00,,---,0.00,VWS V14.01,2013-07-23 10:02:00,
2013-07-23 06:05:00,68.9,68.6,29.88,SW,217,0.0,1.0,99,0.00,,---,0.00,VWS V14.01,2013-07-23 10:05:00,
2013-07-23 06:07:00,69.2,68.9,29.88,WSW,243,1.0,1.0,99,0.00,,---,0.00,VWS V14.01,2013-07-23 10:07:00,
2013-07-23 06:10:00,68.9,68.6,29.88,SW,216,0.0,0.0,99,0.00,,---,0.00,VWS V14.01,2013-07-23 10:10:00,
2013-07-23 06:12:00,69.3,68.7,29.88,WSW,243,0.0,0.0,98,0.00,,---,0.00,VWS V14.01,2013-07-23 10:12:00,
2013-07-23 06:15:00,68.9,68.6,29.88,SW,216,0.0,0.0,99,0.00,,---,0.00,VWS V14.01,2013-07-23 10:15:00,
2013-07-23 06:17:00,69.2,68.6,29.88,WSW,243,0.0,0.0,98,0.00,,---,0.00,VWS V14.01,2013-07-23 10:17:00,
2013-07-23 06:20:00,68.9,68.3,29.88,SW,217,0.0,0.0,98,0.00,,---,0.00,VWS V14.01,2013-07-23 10:20:00,
2013-07-23 06:23:00,69.0,68.4,29.88,WSW,243,0.0,1.0,98,0.00,,---,0.00,VWS V14.01,2013-07-23 10:23:00,
2013-07-23 06:25:00,68.8,68.2,29.88,SW,217,0.0,0.0,98,0.00,,---,0.00,VWS V14.01,2013-07-23 10:25:00,
2013-07-23 06:28:00,68.8,68.2,29.88,WSW,243,0.0,0.0,98,0.00,,---,0.00,VWS V14.01,2013-07-23 10:28:00,
2013-07-23 06:30:00,68.8,68.5,29.87,SW,217,0.0,0.0,99,0.00,,---,0.00,VWS V14.01,2013-07-23 10:30:00,
2013-07-23 06:33:00,68.7,68.1,29.87,WSW,243,0.0,0.0,98,0.00,,---,0.00,VWS V14.01,2013-07-23 10:33:00,
2013-07-23 06:35:00,68.8,68.5,29.88,SW,217,0.0,0.0,99,0.00,,---,0.00,VWS V14.01,2013-07-23 10:35:00,
2013-07-23 06:38:00,68.8,68.5,29.88,WSW,243,0.0,0.0,99,0.00,,---,0.00,VWS V14.01,2013-07-23 10:38:00,
2013-07-23 06:40:00,68.9,68.6,29.88,SW,216,0.0,0.0,99,0.00,,---,0.00,VWS V14.01,2013-07-23 10:40:00,
2013-07-23 06:43:00,68.8,68.5,29.88,WSW,243,0.0,1.0,99,0.00,,---,0.00,VWS V14.01,2013-07-23 10:43:00,
2013-07-23 06:45:00,69.0,68.7,29.88,SW,217,0.0,0.0,99,0.00,,---,0.00,VWS V14.01,2013-07-23 10:45:00,
2013-07-23 06:48:00,69.0,68.7,29.87,WSW,243,0.0,1.0,99,0.00,,---,0.00,VWS V14.01,2013-07-23 10:48:00,
2013-07-23 06:50:00,69.1,68.8,29.88,SW,216,0.0,1.0,99,0.00,,---,0.00,VWS V14.01,2013-07-23 10:50:00,
2013-07-23 06:53:00,69.0,68.7,29.87,WSW,243,0.0,0.0,99,0.00,,---,0.00,VWS V14.01,2013-07-23 10:53:00,
2013-07-23 06:55:00,69.2,68.9,29.88,SE,141,1.0,2.0,99,0.00,,---,0.00,VWS V14.01,2013-07-23 10:55:00,
2013-07-23 06:58:00,69.1,68.8,29.87,WSW,243,0.0,0.0,99,0.00,,---,0.00,VWS V14.01,2013-07-23 10:58:00,
2013-07-23 07:00:00,69.2,68.9,29.88,SE,141,0.0,1.0,99,0.00,,---,0.00,VWS V14.01,2013-07-23 11:00:00,
2013-07-23 07:03:00,69.2,68.9,29.87,WSW,243,0.0,0.0,99,0.00,,---,0.00,VWS V14.01,2013-07-23 11:03:00,
2013-07-23 07:05:00,69.1,68.5,29.88,SE,141,0.0,0.0,98,0.00,,---,0.00,VWS V14.01,2013-07-23 11:05:00,
2013-07-23 07:08:00,69.3,69.0,29.87,WSW,243,0.0,0.0,99,0.00,,---,0.00,VWS V14.01,2013-07-23 11:08:00,
2013-07-23 07:10:00,69.2,68.9,29.88,WSW,243,0.0,1.0,99,0.00,,---,0.00,VWS V14.01,2013-07-23 11:10:00,
2013-07-23 07:13:00,69.4,69.1,29.87,WSW,243,0.0,0.0,99,0.00,,---,0.00,VWS V14.01,2013-07-23 11:13:00,
2013-07-23 07:15:00,69.3,68.7,29.88,WSW,243,0.0,0.0,98,0.00,,---,0.00,VWS V14.01,2013-07-23 11:15:00,
2013-07-23 07:18:00,69.5,69.2,29.87,WSW,243,0.0,0.0,99,0.00,,---,0.00,VWS V14.01,2013-07-23 11:18:00,
2013-07-23 07:20:00,69.1,68.5,29.88,WSW,243,0.0,0.0,98,0.00,,---,0.00,VWS V14.01,2013-07-23 11:20:00,
2013-07-23 07:23:00,69.6,69.3,29.88,WSW,243,0.0,0.0,99,0.00,,---,0.00,VWS V14.01,2013-07-23 11:23:00,
2013-07-23 07:25:00,68.9,68.3,29.88,WSW,243,0.0,1.0,98,0.00,,---,0.00,VWS V14.01,2013-07-23 11:25:00,
2013-07-23 07:28:00,69.9,69.6,29.88,WSW,243,0.0,1.0,99,0.00,,---,0.00,VWS V14.01,2013-07-23 11:28:00,
2013-07-23 07:30:00,68.8,68.2,29.88,WSW,243,0.0,0.0,98,0.00,,---,0.00,VWS V14.01,2013-07-23 11:30:00,
2013-07-23 07:33:00,70.2,69.6,29.88,WSW,242,0.0,1.0,98,0.00,,---,0.00,VWS V14.01,2013-07-23 11:33:00,
2013-07-23 07:35:00,68.7,68.4,29.87,WSW,243,0.0,0.0,99,0.00,,---,0.00,VWS V14.01,2013-07-23 11:35:00,
2013-07-23 07:38:00,70.3,69.7,29.88,WSW,243,0.0,0.0,98,0.00,,---,0.00,VWS V14.01,2013-07-23 11:38:00,
2013-07-23 07:40:00,68.7,68.4,29.88,WSW,243,0.0,0.0,99,0.00,,---,0.00,VWS V14.01,2013-07-23 11:40:00,
2013-07-23 07:43:00,70.3,69.7,29.88,SW,220,0.0,1.0,98,0.00,,---,0.00,VWS V14.01,2013-07-23 11:43:00,
2013-07-23 07:45:00,68.9,68.6,29.88,WSW,243,0.0,1.0,99,0.00,,---,0.00,VWS V14.01,2013-07-23 11:45:00,
2013-07-23 07:48:00,70.5,69.9,29.87,SW,220,0.0,0.0,98,0.00,,---,0.00,VWS V14.01,2013-07-23 11:48:00,
2013-07-23 07:50:00,69.0,68.7,29.87,WSW,243,0.0,1.0,99,0.00,,---,0.00,VWS V14.01,2013-07-23 11:50:00,
2013-07-23 07:53:00,70.8,70.2,29.88,WSW,243,1.0,1.0,98,0.00,,---,0.00,VWS V14.01,2013-07-23 11:53:00,
2013-07-23 07:55:00,69.1,68.8,29.87,WSW,243,0.0,0.0,99,0.00,,---,0.00,VWS V14.01,2013-07-23 11:55:00,
2013-07-23 07:58:00,71.3,70.4,29.88,WSW,242,0.0,1.0,97,0.00,,---,0.00,VWS V14.01,2013-07-23 11:58:00,
2013-07-23 08:00:00,69.1,68.8,29.88,WSW,243,0.0,0.0,99,0.00,,---,0.00,VWS V14.01,2013-07-23 12:00:00,
2013-07-23 08:03:00,71.6,70.7,29.88,WSW,243,0.0,0.0,97,0.00,,---,0.00,VWS V14.01,2013-07-23 12:03:00,
2013-07-23 08:05:00,69.2,68.9,29.87,WSW,243,0.0,0.0,99,0.00,,---,0.00,VWS V14.01,2013-07-23 12:05:00,
2013-07-23 08:08:00,72.0,70.8,29.88,WSW,243,0.0,0.0,96,0.00,,---,0.00,VWS V14.01,2013-07-23 12:08:00,
2013-07-23 08:10:00,69.3,69.0,29.87,WSW,243,0.0,0.0,99,0.00,,---,0.00,VWS V14.01,2013-07-23 12:10:00,
2013-07-23 08:13:00,72.3,71.1,29.88,WSW,240,0.0,1.0,96,0.00,,---,0.00,VWS V14.01,2013-07-23 12:13:00,
2013-07-23 08:15:00,69.4,69.1,29.88,WSW,243,0.0,0.0,99,0.00,,---,0.00,VWS V14.01,2013-07-23 12:15:00,
2013-07-23 08:18:00,72.7,71.2,29.88,SW,225,1.0,2.0,95,0.00,,---,0.00,VWS V14.01,2013-07-23 12:18:00,
2013-07-23 08:20:00,69.5,69.2,29.87,WSW,243,0.0,0.0,99,0.00,,---,0.00,VWS V14.01,2013-07-23 12:20:00,
2013-07-23 08:23:00,73.0,71.2,29.88,South,175,0.0,4.0,94,0.00,,---,0.00,VWS V14.01,2013-07-23 12:23:00,
2013-07-23 08:25:00,69.7,69.4,29.88,WSW,243,0.0,0.0,99,0.00,,---,0.00,VWS V14.01,2013-07-23 12:25:00,
2013-07-23 08:28:00,73.0,70.5,29.88,WSW,256,1.0,4.0,92,0.00,,---,0.00,VWS V14.01,2013-07-23 12:28:00,
2013-07-23 08:30:00,70.0,69.7,29.88,WSW,243,0.0,1.0,99,0.00,,---,0.00,VWS V14.01,2013-07-23 12:30:00,
2013-07-23 08:33:00,73.2,71.1,29.88,WSW,252,2.0,4.0,93,0.00,,---,0.00,VWS V14.01,2013-07-23 12:33:00,
2013-07-23 08:35:00,70.3,69.7,29.88,WSW,243,0.0,1.0,98,0.00,,---,0.00,VWS V14.01,2013-07-23 12:35:00,
2013-07-23 08:38:00,73.5,71.4,29.88,SSE,148,2.0,2.0,93,0.00,,---,0.00,VWS V14.01,2013-07-23 12:38:00,
2013-07-23 08:40:00,70.3,69.7,29.88,WSW,242,0.0,1.0,98,0.00,,---,0.00,VWS V14.01,2013-07-23 12:40:00,
2013-07-23 08:43:00,73.9,71.4,29.88,ENE,75,1.0,5.0,92,0.00,,---,0.00,VWS V14.01,2013-07-23 12:43:00,
2013-07-23 08:45:00,70.4,69.8,29.87,SW,220,0.0,1.0,98,0.00,,---,0.00,VWS V14.01,2013-07-23 12:45:00,
2013-07-23 08:48:00,74.3,71.5,29.88,WSW,244,4.0,4.0,91,0.00,,---,0.00,VWS V14.01,2013-07-23 12:48:00,
2013-07-23 08:50:00,70.6,70.0,29.87,SW,220,0.0,0.0,98,0.00,,---,0.00,VWS V14.01,2013-07-23 12:50:00,
2013-07-23 08:53:00,74.8,71.7,29.88,WSW,248,1.0,2.0,90,0.00,,---,0.00,VWS V14.01,2013-07-23 12:53:00,
2013-07-23 08:55:00,71.0,70.1,29.88,WSW,243,0.0,1.0,97,0.00,,---,0.00,VWS V14.01,2013-07-23 12:55:00,
2013-07-23 08:58:00,74.9,71.8,29.88,SW,236,3.0,5.0,90,0.00,,---,0.00,VWS V14.01,2013-07-23 12:58:00,
2013-07-23 09:00:00,71.4,70.5,29.88,WSW,243,0.0,1.0,97,0.00,,---,0.00,VWS V14.01,2013-07-23 13:00:00,
2013-07-23 09:03:00,74.9,71.8,29.88,SW,219,2.0,5.0,90,0.00,,---,0.00,VWS V14.01,2013-07-23 13:03:00,
2013-07-23 09:05:00,71.8,70.9,29.88,WSW,243,0.0,0.0,97,0.00,,---,0.00,VWS V14.01,2013-07-23 13:05:00,
2013-07-23 09:08:00,75.0,71.9,29.87,West,261,1.0,7.0,90,0.00,,---,0.00,VWS V14.01,2013-07-23 13:08:00,
2013-07-23 09:10:00,72.0,70.8,29.88,WSW,243,0.0,1.0,96,0.00,,---,0.00,VWS V14.01,2013-07-23 13:10:00,
2013-07-23 09:13:00,75.6,72.1,29.87,SSE,147,2.0,4.0,89,0.00,,---,0.00,VWS V14.01,2013-07-23 13:13:00,
2013-07-23 09:15:00,72.4,70.9,29.88,SE,140,1.0,2.0,95,0.00,,---,0.00,VWS V14.01,2013-07-23 13:15:00,
2013-07-23 09:18:00,76.0,72.5,29.87,West,260,2.0,4.0,89,0.00,,---,0.00,VWS V14.01,2013-07-23 13:18:00,
2013-07-23 09:20:00,72.8,71.3,29.88,WSW,238,1.0,2.0,95,0.00,,---,0.00,VWS V14.01,2013-07-23 13:20:00,
2013-07-23 09:23:00,76.0,72.2,29.87,SW,236,4.0,6.0,88,0.00,,---,0.00,VWS V14.01,2013-07-23 13:23:00,
2013-07-23 09:25:00,73.0,71.2,29.88,West,267,3.0,4.0,94,0.00,,---,0.00,VWS V14.01,2013-07-23 13:25:00,
2013-07-23 09:28:00,76.0,71.9,29.87,South,191,3.0,9.0,87,0.00,,---,0.00,VWS V14.01,2013-07-23 13:28:00,
2013-07-23 09:30:00,73.0,70.9,29.88,West,270,1.0,4.0,93,0.00,,---,0.00,VWS V14.01,2013-07-23 13:30:00,
2013-07-23 09:33:00,76.1,71.9,29.87,WSW,257,1.0,6.0,87,0.00,,---,0.00,VWS V14.01,2013-07-23 13:33:00,
2013-07-23 09:35:00,73.2,70.7,29.88,SW,216,2.0,5.0,92,0.00,,---,0.00,VWS V14.01,2013-07-23 13:35:00,
2013-07-23 09:38:00,76.1,71.6,29.87,WSW,253,7.0,9.0,86,0.00,,---,0.00,VWS V14.01,2013-07-23 13:38:00,
2013-07-23 09:40:00,73.7,71.2,29.88,West,264,5.0,5.0,92,0.00,,---,0.00,VWS V14.01,2013-07-23 13:40:00,
2013-07-23 09:43:00,76.4,71.9,29.87,WSW,243,4.0,5.0,86,0.00,,---,0.00,VWS V14.01,2013-07-23 13:43:00,
2013-07-23 09:45:00,74.0,71.2,29.88,SW,231,2.0,5.0,91,0.00,,---,0.00,VWS V14.01,2013-07-23 13:45:00,
2013-07-23 09:48:00,76.5,72.0,29.87,WSW,238,1.0,9.0,86,0.00,,---,0.00,VWS V14.01,2013-07-23 13:48:00,
2013-07-23 09:50:00,74.4,71.3,29.88,South,177,1.0,4.0,90,0.00,,---,0.00,VWS V14.01,2013-07-23 13:50:00,
2013-07-23 09:53:00,76.6,72.1,29.87,South,182,2.0,7.0,86,0.00,,---,0.00,VWS V14.01,2013-07-23 13:53:00,
2013-07-23 09:55:00,74.8,71.7,29.88,West,270,5.0,7.0,90,0.00,,---,0.00,VWS V14.01,2013-07-23 13:55:00,
2013-07-23 09:58:00,76.6,72.1,29.87,NW,319,4.0,8.0,86,0.00,,---,0.00,VWS V14.01,2013-07-23 13:58:00,
2013-07-23 10:00:00,74.9,71.8,29.88,West,265,3.0,5.0,90,0.00,,---,0.00,VWS V14.01,2013-07-23 14:00:00,
2013-07-23 10:03:00,76.7,71.9,29.87,West,274,2.0,11.0,85,0.00,,---,0.00,VWS V14.01,2013-07-23 14:03:00,
2013-07-23 10:05:00,74.9,71.8,29.87,SSE,159,2.0,5.0,90,0.00,,---,0.00,VWS V14.01,2013-07-23 14:05:00,
2013-07-23 10:08:00,76.9,72.1,29.87,South,179,4.0,9.0,85,0.00,,---,0.00,VWS V14.01,2013-07-23 14:08:00,
2013-07-23 10:10:00,75.1,72.0,29.87,WSW,252,1.0,7.0,90,0.00,,---,0.00,VWS V14.01,2013-07-23 14:10:00,
2013-07-23 10:13:00,77.1,72.2,29.88,SW,217,2.0,9.0,85,0.00,,---,0.00,VWS V14.01,2013-07-23 14:13:00,
2013-07-23 10:15:00,75.7,72.2,29.87,West,270,0.0,4.0,89,0.00,,---,0.00,VWS V14.01,2013-07-23 14:15:00,
2013-07-23 10:18:00,77.2,72.3,29.87,SW,236,4.0,10.0,85,0.00,,---,0.00,VWS V14.01,2013-07-23 14:18:00,
2013-07-23 10:20:00,76.0,72.2,29.87,SW,219,4.0,4.0,88,0.00,,---,0.00,VWS V14.01,2013-07-23 14:20:00,
2013-07-23 10:23:00,77.4,72.5,29.88,SW,221,2.0,9.0,85,0.00,,---,0.00,VWS V14.01,2013-07-23 14:23:00,
2013-07-23 10:25:00,76.0,71.9,29.87,WSW,249,5.0,11.0,87,0.00,,---,0.00,VWS V14.01,2013-07-23 14:25:00,
2013-07-23 10:28:00,78.1,72.9,29.88,SE,145,3.0,6.0,84,0.00,,---,0.00,VWS V14.01,2013-07-23 14:28:00,
2013-07-23 10:30:00,76.0,71.9,29.87,SW,236,6.0,9.0,87,0.00,,---,0.00,VWS V14.01,2013-07-23 14:30:00,
2013-07-23 10:33:00,78.5,72.9,29.88,SW,214,7.0,8.0,83,0.00,,---,0.00,VWS V14.01,2013-07-23 14:33:00,
2013-07-23 10:35:00,76.1,71.9,29.87,WSW,249,6.0,6.0,87,0.00,,---,0.00,VWS V14.01,2013-07-23 14:35:00,
2013-07-23 10:38:00,78.8,73.2,29.88,SW,217,2.0,8.0,83,0.00,,---,0.00,VWS V14.01,2013-07-23 14:38:00,
2013-07-23 10:40:00,76.1,71.9,29.87,WSW,248,5.0,9.0,87,0.00,,---,0.00,VWS V14.01,2013-07-23 14:40:00,
2013-07-23 10:43:00,79.1,73.5,29.89,SSE,160,1.0,7.0,83,0.00,,---,0.00,VWS V14.01,2013-07-23 14:43:00,
2013-07-23 10:45:00,76.5,72.3,29.87,SW,236,7.0,7.0,87,0.00,,---,0.00,VWS V14.01,2013-07-23 14:45:00,
2013-07-23 10:49:00,80.0,73.7,29.88,SSW,213,6.0,9.0,81,0.00,,---,0.00,VWS V14.01,2013-07-23 14:49:00,
2013-07-23 10:50:00,76.5,72.0,29.87,SW,217,3.0,9.0,86,0.00,,---,0.00,VWS V14.01,2013-07-23 14:50:00,
2013-07-23 10:54:00,80.5,73.4,29.88,West,261,7.0,13.0,79,0.00,,---,0.00,VWS V14.01,2013-07-23 14:54:00,
2013-07-23 10:55:00,76.6,72.4,29.87,WSW,248,4.0,7.0,87,0.00,,---,0.00,VWS V14.01,2013-07-23 14:55:00,
2013-07-23 10:59:00,80.7,73.2,29.88,WSW,250,4.0,9.0,78,0.00,,---,0.00,VWS V14.01,2013-07-23 14:59:00,
2013-07-23 11:00:00,76.7,72.2,29.87,West,263,3.0,8.0,86,0.00,,---,0.00,VWS V14.01,2013-07-23 15:00:00,
2013-07-23 11:04:00,80.3,73.2,29.89,WSW,238,2.0,8.0,79,0.00,,---,0.00,VWS V14.01,2013-07-23 15:04:00,
2013-07-23 11:05:00,76.7,72.2,29.87,WSW,240,2.0,11.0,86,0.00,,---,0.00,VWS V14.01,2013-07-23 15:05:00,
2013-07-23 11:09:00,79.4,72.7,29.89,NNW,338,3.0,9.0,80,0.00,,---,0.00,VWS V14.01,2013-07-23 15:09:00,
2013-07-23 11:10:00,77.0,72.2,29.87,ESE,117,3.0,9.0,85,0.00,,---,0.00,VWS V14.01,2013-07-23 15:10:00,
2013-07-23 11:14:00,79.1,72.4,29.89,SSE,148,4.0,6.0,80,0.00,,---,0.00,VWS V14.01,2013-07-23 15:14:00,
2013-07-23 11:15:00,77.2,72.3,29.88,SSW,194,3.0,11.0,85,0.00,,---,0.00,VWS V14.01,2013-07-23 15:15:00,
2013-07-23 11:19:00,79.0,72.7,29.88,SSW,200,4.0,6.0,81,0.00,,---,0.00,VWS V14.01,2013-07-23 15:19:00,
2013-07-23 11:20:00,77.3,72.4,29.88,WSW,250,2.0,10.0,85,0.00,,---,0.00,VWS V14.01,2013-07-23 15:20:00,
2013-07-23 11:24:00,79.3,73.3,29.88,WSW,247,1.0,6.0,82,0.00,,---,0.00,VWS V14.01,2013-07-23 15:24:00,
2013-07-23 11:25:00,77.5,72.6,29.88,SSW,206,5.0,9.0,85,0.00,,---,0.00,VWS V14.01,2013-07-23 15:25:00,
2013-07-23 11:29:00,79.3,73.0,29.88,SSE,164,6.0,9.0,81,0.00,,---,0.00,VWS V14.01,2013-07-23 15:29:00,
2013-07-23 11:30:00,78.3,73.1,29.88,WSW,257,4.0,8.0,84,0.00,,---,0.00,VWS V14.01,2013-07-23 15:30:00,
2013-07-23 11:34:00,79.3,73.3,29.89,SW,226,5.0,8.0,82,0.00,,---,0.00,VWS V14.01,2013-07-23 15:34:00,
2013-07-23 11:35:00,78.5,72.9,29.88,WSW,250,2.0,8.0,83,0.00,,---,0.00,VWS V14.01,2013-07-23 15:35:00,
2013-07-23 11:39:00,79.1,73.1,29.88,South,184,1.0,8.0,82,0.00,,---,0.00,VWS V14.01,2013-07-23 15:39:00,
2013-07-23 11:40:00,78.9,73.7,29.88,SE,139,3.0,9.0,84,0.00,,---,0.00,VWS V14.01,2013-07-23 15:40:00,
2013-07-23 11:44:00,79.1,73.1,29.88,SW,214,6.0,8.0,82,0.00,,---,0.00,VWS V14.01,2013-07-23 15:44:00,
2013-07-23 11:45:00,79.3,73.7,29.88,WSW,253,0.0,7.0,83,0.00,,---,0.00,VWS V14.01,2013-07-23 15:45:00,
2013-07-23 11:49:00,79.3,73.0,29.88,SE,145,2.0,8.0,81,0.00,,---,0.00,VWS V14.01,2013-07-23 15:49:00,
2013-07-23 11:50:00,80.1,73.4,29.88,SSW,200,3.0,9.0,80,0.00,,---,0.00,VWS V14.01,2013-07-23 15:50:00,
2013-07-23 11:54:00,79.6,72.9,29.87,WNW,298,1.0,7.0,80,0.00,,---,0.00,VWS V14.01,2013-07-23 15:54:00,
2013-07-23 11:55:00,80.5,73.8,29.88,WNW,302,7.0,13.0,80,0.00,,---,0.00,VWS V14.01,2013-07-23 15:55:00,
2013-07-23 11:59:00,80.0,73.3,29.88,South,191,3.0,10.0,80,0.00,,---,0.00,VWS V14.01,2013-07-23 15:59:00,
2013-07-23 12:00:00,80.6,73.1,29.89,WNW,285,3.0,9.0,78,0.00,,---,0.00,VWS V14.01,2013-07-23 16:00:00,
2013-07-23 12:04:00,80.4,73.3,29.88,WSW,252,3.0,10.0,79,0.00,,---,0.00,VWS V14.01,2013-07-23 16:04:00,
2013-07-23 12:05:00,80.1,73.0,29.89,WSW,248,2.0,8.0,79,0.00,,---,0.00,VWS V14.01,2013-07-23 16:05:00,
2013-07-23 12:09:00,80.1,72.6,29.87,SSE,168,2.0,8.0,78,0.00,,---,0.00,VWS V14.01,2013-07-23 16:09:00,
2013-07-23 12:10:00,79.3,72.6,29.89,SW,224,3.0,9.0,80,0.00,,---,0.00,VWS V14.01,2013-07-23 16:10:00,
2013-07-23 12:14:00,80.4,73.3,29.87,SSE,149,2.0,8.0,79,0.00,,---,0.00,VWS V14.01,2013-07-23 16:14:00,
2013-07-23 12:15:00,79.1,72.4,29.89,South,169,4.0,6.0,80,0.00,,---,0.00,VWS V14.01,2013-07-23 16:15:00,
2013-07-23 12:19:00,81.0,73.9,29.87,WSW,237,1.0,5.0,79,0.00,,---,0.00,VWS V14.01,2013-07-23 16:19:00,
2013-07-23 12:20:00,79.0,72.7,29.88,SE,126,3.0,7.0,81,0.00,,---,0.00,VWS V14.01,2013-07-23 16:20:00,
2013-07-23 12:24:00,81.2,74.1,29.86,SW,235,1.0,4.0,79,0.00,,---,0.00,VWS V14.01,2013-07-23 16:24:00,
2013-07-23 12:25:00,79.3,73.0,29.88,SW,226,3.0,6.0,81,0.00,,---,0.00,VWS V14.01,2013-07-23 16:25:00,
2013-07-23 12:29:00,81.2,73.3,29.86,SSW,206,4.0,10.0,77,0.00,,---,0.00,VWS V14.01,2013-07-23 16:29:00,
2013-07-23 12:30:00,79.3,73.0,29.88,East,101,2.0,9.0,81,0.00,,---,0.00,VWS V14.01,2013-07-23 16:30:00,
2013-07-23 12:34:00,80.5,73.8,29.86,SSW,199,4.0,5.0,80,0.00,,---,0.00,VWS V14.01,2013-07-23 16:34:00,
2013-07-23 12:35:00,79.2,72.9,29.89,SE,130,2.0,8.0,81,0.00,,---,0.00,VWS V14.01,2013-07-23 16:35:00,
2013-07-23 12:39:00,80.1,73.4,29.85,ESE,114,0.0,6.0,80,0.00,,---,0.00,VWS V14.01,2013-07-23 16:39:00,
2013-07-23 12:40:00,79.1,72.8,29.88,South,184,2.0,8.0,81,0.00,,---,0.00,VWS V14.01,2013-07-23 16:40:00,
2013-07-23 12:44:00,79.6,73.3,29.86,West,276,1.0,3.0,81,0.00,,---,0.00,VWS V14.01,2013-07-23 16:44:00,
2013-07-23 12:45:00,79.5,73.5,29.86,SW,236,2.0,3.0,82,0.00,,---,0.00,VWS V14.01,2013-07-23 16:45:00,
2013-07-23 12:50:00,79.0,73.4,29.85,South,183,1.0,4.0,83,0.00,,---,0.00,VWS V14.01,2013-07-23 16:50:00,
2013-07-23 12:55:00,78.8,73.6,29.85,South,188,1.0,2.0,84,0.00,,---,0.00,VWS V14.01,2013-07-23 16:55:00,
2013-07-23 13:00:00,78.7,73.8,29.85,West,268,5.0,5.0,85,0.00,,---,0.00,VWS V14.01,2013-07-23 17:00:00,
2013-07-23 13:05:00,78.8,73.6,29.85,West,269,4.0,5.0,84,0.00,,---,0.00,VWS V14.01,2013-07-23 17:05:00,
2013-07-23 13:10:00,78.8,73.2,29.85,SSW,205,4.0,9.0,83,0.00,,---,0.00,VWS V14.01,2013-07-23 17:10:00,
2013-07-23 13:15:00,78.9,73.7,29.85,NW,310,1.0,3.0,84,0.00,,---,0.00,VWS V14.01,2013-07-23 17:15:00,
2013-07-23 13:20:00,78.0,73.5,29.86,West,276,3.0,6.0,86,0.05,,---,0.05,VWS V14.01,2013-07-23 17:20:00,
2013-07-23 13:25:00,76.6,73.4,29.85,WSW,249,3.0,3.0,90,0.15,,---,0.15,VWS V14.01,2013-07-23 17:25:00,
2013-07-23 13:30:00,76.1,73.6,29.86,SSE,148,0.0,0.0,92,0.15,,---,0.15,VWS V14.01,2013-07-23 17:30:00,
2013-07-23 13:35:00,75.7,73.5,29.86,SSE,148,0.0,0.0,93,0.15,,---,0.15,VWS V14.01,2013-07-23 17:35:00,
2013-07-23 13:40:00,75.5,73.3,29.86,SE,142,0.0,1.0,93,0.15,,---,0.15,VWS V14.01,2013-07-23 17:40:00,
2013-07-23 13:45:00,75.3,73.1,29.87,SW,233,1.0,4.0,93,0.16,,---,0.16,VWS V14.01,2013-07-23 17:45:00,
2013-07-23 13:50:00,75.0,72.8,29.87,SW,221,6.0,6.0,93,0.20,,---,0.20,VWS V14.01,2013-07-23 17:50:00,
2013-07-23 13:55:00,78.8,73.6,29.85,West,267,2.0,4.0,84,0.00,,---,0.00,VWS V14.01,2013-07-23 17:55:00,
2013-07-23 13:56:00,74.8,73.0,29.86,WSW,249,2.0,5.0,94,0.21,,---,0.21,VWS V14.01,2013-07-23 17:56:00,
2013-07-23 14:00:00,78.7,73.8,29.85,SSW,207,3.0,6.0,85,0.00,,---,0.00,VWS V14.01,2013-07-23 18:00:00,
2013-07-23 14:01:00,74.8,73.0,29.86,WSW,241,4.0,5.0,94,0.21,,---,0.21,VWS V14.01,2013-07-23 18:01:00,
2013-07-23 14:05:00,78.8,73.6,29.85,SW,215,4.0,9.0,84,0.00,,---,0.00,VWS V14.01,2013-07-23 18:05:00,
2013-07-23 14:06:00,75.0,73.5,29.86,WSW,256,5.0,5.0,95,0.21,,---,0.21,VWS V14.01,2013-07-23 18:06:00,
2013-07-23 14:10:00,78.8,73.2,29.85,WSW,238,9.0,11.0,83,0.00,,---,0.00,VWS V14.01,2013-07-23 18:10:00,
2013-07-23 14:11:00,75.3,73.5,29.86,SW,235,2.0,3.0,94,0.21,,---,0.21,VWS V14.01,2013-07-23 18:11:00,
2013-07-23 14:15:00,78.9,73.7,29.85,WNW,300,2.0,9.0,84,0.00,,---,0.00,VWS V14.01,2013-07-23 18:15:00,
2013-07-23 14:16:00,75.7,74.2,29.86,SW,228,2.0,2.0,95,0.21,,---,0.21,VWS V14.01,2013-07-23 18:16:00,
2013-07-23 14:20:00,78.1,73.6,29.86,SSW,213,6.0,12.0,86,0.03,,---,0.03,VWS V14.01,2013-07-23 18:20:00,
2013-07-23 14:21:00,76.2,75.0,29.86,NE,45,0.0,1.0,96,0.18,,---,0.21,VWS V14.01,2013-07-23 18:21:00,
2013-07-23 14:25:00,76.7,73.6,29.85,WSW,245,1.0,6.0,90,0.15,,---,0.15,VWS V14.01,2013-07-23 18:25:00,
2013-07-23 14:27:00,76.6,74.4,29.86,NE,45,0.0,1.0,93,0.06,,---,0.21,VWS V14.01,2013-07-23 18:27:00,
2013-07-23 14:30:00,76.1,73.3,29.85,SSE,148,0.0,4.0,91,0.15,,---,0.15,VWS V14.01,2013-07-23 18:30:00,
2013-07-23 14:32:00,76.8,74.9,29.85,SE,132,0.0,1.0,94,0.06,,---,0.21,VWS V14.01,2013-07-23 18:32:00,
2013-07-23 14:35:00,75.8,73.6,29.86,SSE,148,0.0,0.0,93,0.15,,---,0.15,VWS V14.01,2013-07-23 18:35:00,
2013-07-23 14:38:00,78.0,75.2,29.84,WSW,251,2.0,4.0,91,0.06,,---,0.21,VWS V14.01,2013-07-23 18:38:00,
2013-07-23 14:40:00,75.4,72.9,29.86,SSW,200,1.0,3.0,92,0.15,,---,0.15,VWS V14.01,2013-07-23 18:40:00,
2013-07-23 14:43:00,79.0,74.5,29.84,WSW,237,3.0,7.0,86,0.06,,---,0.21,VWS V14.01,2013-07-23 18:43:00,
2013-07-23 14:45:00,75.3,72.8,29.87,SSW,212,3.0,6.0,92,0.15,,---,0.15,VWS V14.01,2013-07-23 18:45:00,
2013-07-23 14:48:00,79.2,75.0,29.84,SSW,200,1.0,4.0,87,0.06,,---,0.21,VWS V14.01,2013-07-23 18:48:00,
2013-07-23 14:50:00,75.1,72.9,29.87,SW,220,1.0,4.0,93,0.19,,---,0.19,VWS V14.01,2013-07-23 18:50:00,
2013-07-23 14:53:00,79.3,75.4,29.84,SE,144,1.0,4.0,88,0.02,,---,0.21,VWS V14.01,2013-07-23 18:53:00,
2013-07-23 14:55:00,74.8,73.0,29.86,WSW,245,1.0,7.0,94,0.20,,---,0.20,VWS V14.01,2013-07-23 18:55:00,
2013-07-23 14:59:00,79.2,74.7,29.84,SE,134,1.0,3.0,86,0.01,,---,0.21,VWS V14.01,2013-07-23 18:59:00,
2013-07-23 15:00:00,74.8,73.0,29.86,South,186,1.0,5.0,94,0.21,,---,0.21,VWS V14.01,2013-07-23 19:00:00,
2013-07-23 15:04:00,79.8,74.9,29.83,SSW,193,3.0,7.0,85,0.00,,---,0.21,VWS V14.01,2013-07-23 19:04:00,
2013-07-23 15:05:00,74.9,73.1,29.86,WSW,256,1.0,5.0,94,0.21,,---,0.21,VWS V14.01,2013-07-23 19:05:00,
2013-07-23 15:10:00,80.2,74.2,29.84,South,190,2.0,8.0,82,0.00,,---,0.21,VWS V14.01,2013-07-23 19:10:00,
2013-07-23 15:15:00,79.7,73.4,29.83,SE,129,2.0,6.0,81,0.00,,---,0.21,VWS V14.01,2013-07-23 19:15:00,
2013-07-23 15:20:00,79.8,74.2,29.83,South,188,3.0,4.0,83,0.00,,---,0.21,VWS V14.01,2013-07-23 19:20:00,
2013-07-23 15:25:00,80.0,74.4,29.83,ESE,113,1.0,1.0,83,0.00,,---,0.21,VWS V14.01,2013-07-23 19:25:00,
2013-07-23 15:30:00,80.2,74.2,29.83,WSW,253,3.0,7.0,82,0.00,,---,0.21,VWS V14.01,2013-07-23 19:30:00,
2013-07-23 15:35:00,80.0,73.3,29.82,SW,225,3.0,3.0,80,0.00,,---,0.21,VWS V14.01,2013-07-23 19:35:00,
2013-07-23 15:40:00,80.2,73.8,29.82,SSE,156,3.0,7.0,81,0.00,,---,0.21,VWS V14.01,2013-07-23 19:40:00,
2013-07-23 15:45:00,80.8,74.8,29.82,SSW,204,2.0,2.0,82,0.00,,---,0.21,VWS V14.01,2013-07-23 19:45:00,
2013-07-23 15:50:00,81.8,73.9,29.82,WSW,245,3.0,4.0,77,0.00,,---,0.21,VWS V14.01,2013-07-23 19:50:00,
2013-07-23 15:55:00,82.2,74.3,29.81,ENE,59,2.0,2.0,77,0.00,,---,0.21,VWS V14.01,2013-07-23 19:55:00,
2013-07-23 16:00:00,82.7,74.4,29.81,NE,37,2.0,2.0,76,0.00,,---,0.21,VWS V14.01,2013-07-23 20:00:00,
2013-07-23 16:05:00,79.9,74.6,29.83,SSE,153,2.0,7.0,84,0.00,,---,0.21,VWS V14.01,2013-07-23 20:05:00,
2013-07-23 16:06:00,82.7,74.4,29.81,SE,131,1.0,1.0,76,0.00,,---,0.21,VWS V14.01,2013-07-23 20:06:00,
2013-07-23 16:10:00,80.2,74.2,29.84,South,190,2.0,8.0,82,0.00,,---,0.21,VWS V14.01,2013-07-23 20:10:00,
2013-07-23 16:11:00,82.3,73.6,29.80,South,175,1.0,4.0,75,0.00,,---,0.21,VWS V14.01,2013-07-23 20:11:00,
2013-07-23 16:15:00,79.7,73.4,29.83,SE,129,2.0,6.0,81,0.00,,---,0.21,VWS V14.01,2013-07-23 20:15:00,
2013-07-23 16:16:00,82.6,74.7,29.80,ENE,72,0.0,3.0,77,0.00,,---,0.21,VWS V14.01,2013-07-23 20:16:00,
2013-07-23 16:20:00,79.8,74.2,29.83,South,188,3.0,4.0,83,0.00,,---,0.21,VWS V14.01,2013-07-23 20:20:00,
2013-07-23 16:21:00,82.9,74.2,29.80,East,96,2.0,7.0,75,0.00,,---,0.21,VWS V14.01,2013-07-23 20:21:00,
2013-07-23 16:25:00,80.0,74.4,29.83,SSW,205,0.0,4.0,83,0.00,,---,0.21,VWS V14.01,2013-07-23 20:25:00,
2013-07-23 16:26:00,82.2,74.3,29.80,SSW,207,1.0,5.0,77,0.00,,---,0.21,VWS V14.01,2013-07-23 20:26:00,
2013-07-23 16:30:00,80.2,74.2,29.83,WSW,242,7.0,7.0,82,0.00,,---,0.21,VWS V14.01,2013-07-23 20:30:00,
2013-07-23 16:31:00,81.9,74.0,29.79,WSW,251,2.0,3.0,77,0.00,,---,0.21,VWS V14.01,2013-07-23 20:31:00,
2013-07-23 16:35:00,80.0,73.3,29.82,West,269,2.0,13.0,80,0.00,,---,0.21,VWS V14.01,2013-07-23 20:35:00,
2013-07-23 16:36:00,82.5,74.2,29.79,SE,128,4.0,6.0,76,0.00,,---,0.21,VWS V14.01,2013-07-23 20:36:00,
2013-07-23 16:40:00,80.1,73.8,29.82,SSW,212,7.0,7.0,81,0.00,,---,0.21,VWS V14.01,2013-07-23 20:40:00,
2013-07-23 16:41:00,82.3,74.0,29.79,South,173,6.0,9.0,76,0.00,,---,0.21,VWS V14.01,2013-07-23 20:41:00,
2013-07-23 16:45:00,80.7,74.7,29.82,WSW,238,2.0,7.0,82,0.00,,---,0.21,VWS V14.01,2013-07-23 20:45:00,
2013-07-23 16:47:00,81.9,73.6,29.79,WSW,244,4.0,10.0,76,0.00,,---,0.21,VWS V14.01,2013-07-23 20:47:00,
2013-07-23 16:50:00,81.7,73.4,29.82,SSW,212,3.0,8.0,76,0.00,,---,0.21,VWS V14.01,2013-07-23 20:50:00,
2013-07-23 16:52:00,81.6,73.7,29.79,WSW,257,1.0,6.0,77,0.00,,---,0.21,VWS V14.01,2013-07-23 20:52:00,
2013-07-23 16:55:00,82.1,74.2,29.81,SSW,211,2.0,6.0,77,0.00,,---,0.21,VWS V14.01,2013-07-23 20:55:00,
2013-07-23 16:57:00,81.5,74.0,29.80,SW,224,3.0,7.0,78,0.00,,---,0.21,VWS V14.01,2013-07-23 20:57:00,
2013-07-23 17:00:00,82.6,73.9,29.81,SW,217,0.0,10.0,75,0.00,,---,0.21,VWS V14.01,2013-07-23 21:00:00,
2013-07-23 17:02:00,81.2,74.1,29.79,WSW,250,4.0,5.0,79,0.00,,---,0.21,VWS V14.01,2013-07-23 21:02:00,
2013-07-23 17:05:00,82.7,74.0,29.81,WSW,258,1.0,6.0,75,0.00,,---,0.21,VWS V14.01,2013-07-23 21:05:00,
2013-07-23 17:07:00,80.8,74.1,29.79,West,266,3.0,9.0,80,0.00,,---,0.21,VWS V14.01,2013-07-23 21:07:00,
2013-07-23 17:10:00,82.4,74.5,29.80,South,176,4.0,5.0,77,0.00,,---,0.21,VWS V14.01,2013-07-23 21:10:00,
2013-07-23 17:13:00,80.7,74.0,29.79,East,89,1.0,7.0,80,0.00,,---,0.21,VWS V14.01,2013-07-23 21:13:00,
2013-07-23 17:15:00,82.4,74.1,29.80,ESE,110,1.0,4.0,76,0.00,,---,0.21,VWS V14.01,2013-07-23 21:15:00,
2013-07-23 17:18:00,80.7,73.6,29.79,SSE,160,2.0,7.0,79,0.00,,---,0.21,VWS V14.01,2013-07-23 21:18:00,
2013-07-23 17:20:00,83.1,74.8,29.80,South,172,4.0,6.0,76,0.00,,---,0.21,VWS V14.01,2013-07-23 21:20:00,
2013-07-23 17:23:00,80.9,74.2,29.79,WSW,255,3.0,4.0,80,0.00,,---,0.21,VWS V14.01,2013-07-23 21:23:00,
2013-07-23 17:25:00,82.4,74.1,29.80,SSE,149,3.0,7.0,76,0.00,,---,0.21,VWS V14.01,2013-07-23 21:25:00,
2013-07-23 17:28:00,80.5,73.8,29.79,SW,217,9.0,11.0,80,0.00,,---,0.21,VWS V14.01,2013-07-23 21:28:00,
2013-07-23 17:30:00,81.7,73.8,29.80,SSE,162,2.0,9.0,77,0.00,,---,0.21,VWS V14.01,2013-07-23 21:30:00,
2013-07-23 17:34:00,80.1,74.1,29.79,SW,236,4.0,8.0,82,0.00,,---,0.21,VWS V14.01,2013-07-23 21:34:00,
2013-07-23 17:35:00,82.2,74.7,29.79,SE,127,2.0,7.0,78,0.00,,---,0.21,VWS V14.01,2013-07-23 21:35:00,
2013-07-23 17:39:00,80.1,74.1,29.79,SE,143,1.0,7.0,82,0.00,,---,0.21,VWS V14.01,2013-07-23 21:39:00,
2013-07-23 17:40:00,82.5,74.2,29.79,WSW,240,9.0,9.0,76,0.00,,---,0.21,VWS V14.01,2013-07-23 21:40:00,
2013-07-23 17:45:00,80.3,74.3,29.78,West,267,1.0,5.0,82,0.00,,---,0.21,VWS V14.01,2013-07-23 21:45:00,
2013-07-23 17:50:00,80.8,74.8,29.78,South,179,1.0,4.0,82,0.00,,---,0.21,VWS V14.01,2013-07-23 21:50:00,
2013-07-23 17:55:00,80.8,74.8,29.78,SW,227,2.0,6.0,82,0.00,,---,0.21,VWS V14.01,2013-07-23 21:55:00,
2013-07-23 18:00:00,80.7,74.0,29.78,WSW,248,2.0,11.0,80,0.00,,---,0.21,VWS V14.01,2013-07-23 22:00:00,
2013-07-23 18:05:00,80.1,73.8,29.78,SW,216,1.0,5.0,81,0.00,,---,0.21,VWS V14.01,2013-07-23 22:05:00,
2013-07-23 18:10:00,80.0,73.3,29.78,SW,236,4.0,4.0,80,0.00,,---,0.21,VWS V14.01,2013-07-23 22:10:00,
2013-07-23 18:15:00,80.0,73.3,29.78,SSW,205,7.0,8.0,80,0.00,,---,0.21,VWS V14.01,2013-07-23 22:15:00,
2013-07-23 18:20:00,80.2,73.5,29.77,West,266,4.0,6.0,80,0.00,,---,0.21,VWS V14.01,2013-07-23 22:20:00,
2013-07-23 18:25:00,80.3,73.9,29.77,West,269,1.0,4.0,81,0.00,,---,0.21,VWS V14.01,2013-07-23 22:25:00,
2013-07-23 18:30:00,80.4,74.0,29.77,SW,217,6.0,6.0,81,0.00,,---,0.21,VWS V14.01,2013-07-23 22:30:00,
2013-07-23 18:35:00,80.3,73.9,29.76,SW,230,5.0,8.0,81,0.00,,---,0.21,VWS V14.01,2013-07-23 22:35:00,
2013-07-23 18:40:00,80.5,74.1,29.76,WSW,246,1.0,1.0,81,0.00,,---,0.21,VWS V14.01,2013-07-23 22:40:00,
2013-07-23 18:45:00,80.5,73.8,29.76,SSE,161,3.0,7.0,80,0.00,,---,0.21,VWS V14.01,2013-07-23 22:45:00,
2013-07-23 18:50:00,80.5,73.8,29.77,WSW,251,2.0,4.0,80,0.00,,---,0.21,VWS V14.01,2013-07-23 22:50:00,
2013-07-23 18:55:00,80.5,74.1,29.77,South,191,3.0,5.0,81,0.00,,---,0.21,VWS V14.01,2013-07-23 22:55:00,
2013-07-23 19:00:00,80.4,74.0,29.77,South,181,2.0,5.0,81,0.00,,---,0.21,VWS V14.01,2013-07-23 23:00:00,
2013-07-23 19:05:00,80.2,73.5,29.78,SSE,167,5.0,9.0,80,0.00,,---,0.21,VWS V14.01,2013-07-23 23:05:00,
2013-07-23 19:06:00,80.1,73.8,29.77,WSW,253,2.0,6.0,81,0.00,,---,0.21,VWS V14.01,2013-07-23 23:06:00,
2013-07-23 19:10:00,80.0,73.3,29.78,SW,224,4.0,11.0,80,0.00,,---,0.21,VWS V14.01,2013-07-23 23:10:00,
2013-07-23 19:11:00,80.1,74.1,29.78,WSW,253,1.0,2.0,82,0.00,,---,0.21,VWS V14.01,2013-07-23 23:11:00,
2013-07-23 19:15:00,80.0,73.3,29.78,SSW,212,4.0,10.0,80,0.00,,---,0.21,VWS V14.01,2013-07-23 23:15:00,
2013-07-23 19:17:00,79.9,73.9,29.78,WSW,258,4.0,5.0,82,0.00,,---,0.21,VWS V14.01,2013-07-23 23:17:00,
2013-07-23 19:20:00,80.2,73.5,29.77,WSW,258,5.0,8.0,80,0.00,,---,0.21,VWS V14.01,2013-07-23 23:20:00,
2013-07-23 19:22:00,79.9,73.9,29.78,SSW,213,3.0,4.0,82,0.00,,---,0.21,VWS V14.01,2013-07-23 23:22:00,
2013-07-23 19:25:00,80.3,73.9,29.77,WSW,252,3.0,8.0,81,0.00,,---,0.21,VWS V14.01,2013-07-23 23:25:00,
2013-07-23 19:27:00,79.8,73.8,29.78,West,264,4.0,5.0,82,0.00,,---,0.21,VWS V14.01,2013-07-23 23:27:00,
2013-07-23 19:30:00,80.4,74.0,29.77,SW,236,3.0,7.0,81,0.00,,---,0.21,VWS V14.01,2013-07-23 23:30:00,
2013-07-23 19:32:00,79.5,73.5,29.78,SSW,209,4.0,4.0,82,0.00,,---,0.21,VWS V14.01,2013-07-23 23:32:00,
2013-07-23 19:35:00,80.3,73.9,29.77,South,169,3.0,7.0,81,0.00,,---,0.21,VWS V14.01,2013-07-23 23:35:00,
2013-07-23 19:37:00,79.3,73.7,29.78,WSW,255,3.0,7.0,83,0.00,,---,0.21,VWS V14.01,2013-07-23 23:37:00,
2013-07-23 19:40:00,80.5,74.1,29.76,WNW,291,0.0,8.0,81,0.00,,---,0.21,VWS V14.01,2013-07-23 23:40:00,
2013-07-23 19:42:00,79.0,73.8,29.78,SSW,199,1.0,5.0,84,0.00,,---,0.21,VWS V14.01,2013-07-23 23:42:00,
2013-07-23 19:45:00,80.6,73.9,29.76,SW,219,7.0,9.0,80,0.00,,---,0.21,VWS V14.01,2013-07-23 23:45:00,
2013-07-23 19:47:00,78.8,73.9,29.78,West,262,1.0,3.0,85,0.00,,---,0.21,VWS V14.01,2013-07-23 23:47:00,
2013-07-23 19:50:00,80.6,73.9,29.77,SW,222,2.0,7.0,80,0.00,,---,0.21,VWS V14.01,2013-07-23 23:50:00,
2013-07-23 19:52:00,78.7,73.8,29.79,NW,320,0.0,3.0,85,0.00,,---,0.21,VWS V14.01,2013-07-23 23:52:00,
2013-07-23 19:55:00,80.5,74.1,29.77,SSW,209,1.0,7.0,81,0.00,,---,0.21,VWS V14.01,2013-07-23 23:55:00,
2013-07-23 19:58:00,78.6,74.1,29.78,SSW,205,0.0,3.0,86,0.00,,---,0.21,VWS V14.01,2013-07-23 23:58:00,
2013-07-23 20:00:00,80.4,74.0,29.77,South,179,2.0,6.0,81,0.00,,---,0.21,VWS V14.01,2013-07-24 00:00:00,
2013-07-23 20:03:00,78.5,73.6,29.78,WSW,250,0.0,4.0,85,0.00,,---,0.21,VWS V14.01,2013-07-24 00:03:00,
2013-07-23 20:05:00,80.1,73.8,29.77,SW,233,2.0,11.0,81,0.00,,---,0.21,VWS V14.01,2013-07-24 00:05:00,
2013-07-23 20:08:00,78.4,73.9,29.78,SSW,213,1.0,2.0,86,0.00,,---,0.21,VWS V14.01,2013-07-24 00:08:00,
2013-07-23 20:10:00,80.1,73.8,29.77,SW,236,2.0,6.0,81,0.00,,---,0.21,VWS V14.01,2013-07-24 00:10:00,
2013-07-23 20:13:00,78.1,73.6,29.78,East,86,1.0,1.0,86,0.00,,---,0.21,VWS V14.01,2013-07-24 00:13:00,
2013-07-23 20:15:00,80.0,74.0,29.78,WSW,245,3.0,4.0,82,0.00,,---,0.21,VWS V14.01,2013-07-24 00:15:00,
2013-07-23 20:19:00,77.9,73.7,29.77,South,175,2.0,4.0,87,0.00,,---,0.21,VWS V14.01,2013-07-24 00:19:00,
2013-07-23 20:20:00,79.9,73.9,29.78,South,188,0.0,6.0,82,0.00,,---,0.21,VWS V14.01,2013-07-24 00:20:00,
2013-07-23 20:24:00,77.6,73.4,29.77,SSE,160,0.0,2.0,87,0.00,,---,0.21,VWS V14.01,2013-07-24 00:24:00,
2013-07-23 20:25:00,79.8,73.8,29.78,WSW,240,3.0,5.0,82,0.00,,---,0.21,VWS V14.01,2013-07-24 00:25:00,
2013-07-23 20:29:00,77.6,73.4,29.77,SSE,162,0.0,0.0,87,0.00,,---,0.21,VWS V14.01,2013-07-24 00:29:00,
2013-07-23 20:30:00,79.7,73.7,29.78,SW,228,2.0,5.0,82,0.00,,---,0.21,VWS V14.01,2013-07-24 00:30:00,
2013-07-23 20:34:00,77.5,73.7,29.77,WSW,243,0.0,1.0,88,0.00,,---,0.21,VWS V14.01,2013-07-24 00:34:00,
2013-07-23 20:35:00,79.5,73.9,29.78,SW,229,2.0,4.0,83,0.00,,---,0.21,VWS V14.01,2013-07-24 00:35:00,
2013-07-23 20:40:00,77.3,73.5,29.77,SW,224,0.0,0.0,88,0.00,,---,0.21,VWS V14.01,2013-07-24 00:40:00,
2013-07-23 20:45:00,77.0,73.2,29.78,WSW,250,1.0,1.0,88,0.00,,---,0.21,VWS V14.01,2013-07-24 00:45:00,
2013-07-23 20:50:00,77.0,73.2,29.78,WSW,249,1.0,2.0,88,0.00,,---,0.21,VWS V14.01,2013-07-24 00:50:00,
2013-07-23 20:55:00,76.8,73.0,29.79,WSW,245,0.0,0.0,88,0.00,,---,0.21,VWS V14.01,2013-07-24 00:55:00,
2013-07-23 21:00:00,76.7,73.2,29.78,South,169,0.0,0.0,89,0.00,,---,0.21,VWS V14.01,2013-07-24 01:00:00,
2013-07-23 21:05:00,78.5,73.6,29.78,SSW,205,1.0,4.0,85,0.00,,---,0.21,VWS V14.01,2013-07-24 01:05:00,
2013-07-23 21:06:00,76.5,73.3,29.79,South,169,0.0,0.0,90,0.00,,---,0.21,VWS V14.01,2013-07-24 01:06:00,
2013-07-23 21:10:00,78.3,73.8,29.78,SW,235,0.0,3.0,86,0.00,,---,0.21,VWS V14.01,2013-07-24 01:10:00,
2013-07-23 21:11:00,76.1,73.3,29.79,South,169,0.0,0.0,91,0.00,,---,0.21,VWS V14.01,2013-07-24 01:11:00,
2013-07-23 21:15:00,78.0,73.8,29.78,SE,127,0.0,1.0,87,0.00,,---,0.21,VWS V14.01,2013-07-24 01:15:00,
2013-07-23 21:16:00,75.9,72.8,29.79,South,169,0.0,0.0,90,0.00,,---,0.21,VWS V14.01,2013-07-24 01:16:00,
2013-07-23 21:20:00,77.8,73.3,29.77,SE,131,0.0,4.0,86,0.00,,---,0.21,VWS V14.01,2013-07-24 01:20:00,
2013-07-23 21:21:00,75.7,72.9,29.80,South,169,0.0,0.0,91,0.00,,---,0.21,VWS V14.01,2013-07-24 01:21:00,
2013-07-23 21:25:00,77.6,73.4,29.77,SSE,160,0.0,2.0,87,0.00,,---,0.21,VWS V14.01,2013-07-24 01:25:00,
2013-07-23 21:26:00,75.6,73.1,29.80,South,169,0.0,0.0,92,0.00,,---,0.21,VWS V14.01,2013-07-24 01:26:00,
2013-07-23 21:30:00,77.6,73.4,29.77,SSE,162,0.0,0.0,87,0.00,,---,0.21,VWS V14.01,2013-07-24 01:30:00,
2013-07-23 21:32:00,75.5,73.3,29.80,South,169,0.0,0.0,93,0.00,,---,0.21,VWS V14.01,2013-07-24 01:32:00,
2013-07-23 21:35:00,77.5,73.7,29.77,WSW,243,0.0,1.0,88,0.00,,---,0.21,VWS V14.01,2013-07-24 01:35:00,
2013-07-23 21:37:00,75.3,73.1,29.80,South,169,0.0,0.0,93,0.00,,---,0.21,VWS V14.01,2013-07-24 01:37:00,
2013-07-23 21:40:00,77.3,73.5,29.77,SW,224,0.0,3.0,88,0.00,,---,0.21,VWS V14.01,2013-07-24 01:40:00,
2013-07-23 21:42:00,75.1,73.3,29.80,South,169,0.0,0.0,94,0.00,,---,0.21,VWS V14.01,2013-07-24 01:42:00,
2013-07-23 21:45:00,77.0,73.2,29.78,WSW,249,1.0,2.0,88,0.00,,---,0.21,VWS V14.01,2013-07-24 01:45:00,
2013-07-23 21:47:00,74.9,72.7,29.81,South,169,0.0,0.0,93,0.00,,---,0.21,VWS V14.01,2013-07-24 01:47:00,
2013-07-23 21:50:00,77.0,73.2,29.78,West,269,2.0,3.0,88,0.00,,---,0.21,VWS V14.01,2013-07-24 01:50:00,
2013-07-23 21:52:00,74.8,73.0,29.81,South,169,0.0,0.0,94,0.00,,---,0.21,VWS V14.01,2013-07-24 01:52:00,
2013-07-23 21:55:00,76.8,73.0,29.79,WSW,253,0.0,2.0,88,0.00,,---,0.21,VWS V14.01,2013-07-24 01:55:00,
2013-07-23 21:57:00,74.8,72.6,29.81,WSW,246,0.0,1.0,93,0.00,,---,0.21,VWS V14.01,2013-07-24 01:57:00,
2013-07-23 22:00:00,76.7,73.2,29.78,South,169,0.0,1.0,89,0.00,,---,0.21,VWS V14.01,2013-07-24 02:00:00,
2013-07-23 22:02:00,74.9,72.7,29.81,WSW,246,0.0,0.0,93,0.00,,---,0.21,VWS V14.01,2013-07-24 02:02:00,
2013-07-23 22:05:00,76.5,73.0,29.79,South,169,0.0,0.0,89,0.00,,---,0.21,VWS V14.01,2013-07-24 02:05:00,
2013-07-23 22:07:00,74.8,72.6,29.80,WSW,246,0.0,0.0,93,0.00,,---,0.21,VWS V14.01,2013-07-24 02:07:00,
2013-07-23 22:10:00,76.2,73.1,29.79,South,169,0.0,0.0,90,0.00,,---,0.21,VWS V14.01,2013-07-24 02:10:00,
2013-07-23 22:12:00,74.6,72.4,29.80,WSW,246,0.0,0.0,93,0.00,,---,0.21,VWS V14.01,2013-07-24 02:12:00,
2013-07-23 22:15:00,76.0,73.2,29.79,South,169,0.0,0.0,91,0.00,,---,0.21,VWS V14.01,2013-07-24 02:15:00,
2013-07-23 22:17:00,74.4,72.6,29.81,WSW,246,0.0,0.0,94,0.00,,---,0.21,VWS V14.01,2013-07-24 02:17:00,
2013-07-23 22:20:00,75.7,72.9,29.79,South,169,0.0,0.0,91,0.00,,---,0.21,VWS V14.01,2013-07-24 02:20:00,
2013-07-23 22:23:00,74.1,72.6,29.81,WSW,246,0.0,0.0,95,0.00,,---,0.21,VWS V14.01,2013-07-24 02:23:00,
2013-07-23 22:25:00,75.7,73.2,29.80,South,169,0.0,0.0,92,0.00,,---,0.21,VWS V14.01,2013-07-24 02:25:00,
2013-07-23 22:28:00,74.0,72.5,29.81,WSW,246,0.0,0.0,95,0.00,,---,0.21,VWS V14.01,2013-07-24 02:28:00,
2013-07-23 22:30:00,75.5,73.0,29.80,South,169,0.0,0.0,92,0.00,,---,0.21,VWS V14.01,2013-07-24 02:30:00,
2013-07-23 22:33:00,73.8,72.3,29.82,WSW,246,0.0,0.0,95,0.00,,---,0.21,VWS V14.01,2013-07-24 02:33:00,
2013-07-23 22:35:00,75.3,73.1,29.80,South,169,0.0,0.0,93,0.00,,---,0.21,VWS V14.01,2013-07-24 02:35:00,
2013-07-23 22:38:00,73.6,72.4,29.82,WSW,245,0.0,0.0,96,0.00,,---,0.21,VWS V14.01,2013-07-24 02:38:00,
2013-07-23 22:40:00,75.1,72.9,29.80,South,169,0.0,0.0,93,0.00,,---,0.21,VWS V14.01,2013-07-24 02:40:00,
2013-07-23 22:43:00,73.5,72.3,29.81,WSW,237,0.0,0.0,96,0.00,,---,0.21,VWS V14.01,2013-07-24 02:43:00,
2013-07-23 22:45:00,75.0,72.8,29.81,South,169,0.0,0.0,93,0.00,,---,0.21,VWS V14.01,2013-07-24 02:45:00,
2013-07-23 22:49:00,73.3,72.1,29.81,SW,235,0.0,1.0,96,0.00,,---,0.21,VWS V14.01,2013-07-24 02:49:00,
2013-07-23 22:50:00,74.9,73.1,29.81,South,169,0.0,0.0,94,0.00,,---,0.21,VWS V14.01,2013-07-24 02:50:00,
2013-07-23 22:54:00,73.3,72.1,29.82,SW,235,0.0,1.0,96,0.00,,---,0.21,VWS V14.01,2013-07-24 02:54:00,
2013-07-23 22:55:00,74.8,72.6,29.81,South,169,0.0,0.0,93,0.00,,---,0.21,VWS V14.01,2013-07-24 02:55:00,
2013-07-23 22:59:00,73.4,72.5,29.83,SW,235,0.0,0.0,97,0.00,,---,0.21,VWS V14.01,2013-07-24 02:59:00,
2013-07-23 23:00:00,74.9,72.7,29.81,WSW,246,0.0,1.0,93,0.00,,---,0.21,VWS V14.01,2013-07-24 03:00:00,
2013-07-23 23:04:00,73.5,72.6,29.83,SW,234,1.0,1.0,97,0.00,,---,0.21,VWS V14.01,2013-07-24 03:04:00,
2013-07-23 23:05:00,74.9,72.7,29.81,WSW,246,0.0,0.0,93,0.00,,---,0.21,VWS V14.01,2013-07-24 03:05:00,
2013-07-23 23:10:00,73.4,72.2,29.83,SW,235,0.0,1.0,96,0.00,,---,0.21,VWS V14.01,2013-07-24 03:10:00,
2013-07-23 23:15:00,73.5,72.3,29.83,SW,234,0.0,0.0,96,0.00,,---,0.21,VWS V14.01,2013-07-24 03:15:00,
2013-07-23 23:20:00,73.4,72.2,29.82,SW,234,0.0,0.0,96,0.00,,---,0.21,VWS V14.01,2013-07-24 03:20:00,
2013-07-23 23:25:00,74.1,72.6,29.81,WSW,246,0.0,0.0,95,0.00,,---,0.21,VWS V14.01,2013-07-24 03:25:00,
2013-07-23 23:26:00,73.3,72.4,29.83,WSW,239,0.0,0.0,97,0.00,,---,0.21,VWS V14.01,2013-07-24 03:26:00,
2013-07-23 23:30:00,73.9,72.4,29.81,WSW,246,0.0,0.0,95,0.00,,---,0.21,VWS V14.01,2013-07-24 03:30:00,
2013-07-23 23:31:00,73.4,72.2,29.83,WSW,239,0.0,1.0,96,0.00,,---,0.21,VWS V14.01,2013-07-24 03:31:00,
2013-07-23 23:35:00,73.8,72.6,29.82,WSW,246,0.0,0.0,96,0.00,,---,0.21,VWS V14.01,2013-07-24 03:35:00,
2013-07-23 23:36:00,73.6,72.1,29.83,West,269,0.0,0.0,95,0.00,,---,0.21,VWS V14.01,2013-07-24 03:36:00,
2013-07-23 23:40:00,73.6,72.4,29.82,SW,236,0.0,0.0,96,0.00,,---,0.21,VWS V14.01,2013-07-24 03:40:00,
2013-07-23 23:41:00,73.5,72.0,29.83,West,269,0.0,0.0,95,0.00,,---,0.21,VWS V14.01,2013-07-24 03:41:00,
2013-07-23 23:45:00,73.5,72.3,29.81,WSW,237,0.0,0.0,96,0.00,,---,0.21,VWS V14.01,2013-07-24 03:45:00,
2013-07-23 23:46:00,73.3,72.1,29.84,WSW,250,0.0,1.0,96,0.00,,---,0.21,VWS V14.01,2013-07-24 03:46:00,
2013-07-23 23:50:00,73.3,72.1,29.81,SW,235,0.0,1.0,96,0.00,,---,0.21,VWS V14.01,2013-07-24 03:50:00,
2013-07-23 23:51:00,73.3,71.8,29.83,SSE,149,1.0,1.0,95,0.00,,---,0.21,VWS V14.01,2013-07-24 03:51:00,
2013-07-23 23:55:00,73.3,72.1,29.82,SW,235,0.0,1.0,96,0.00,,---,0.21,VWS V14.01,2013-07-24 03:55:00,
2013-07-23 23:56:00,73.2,71.7,29.83,SE,130,1.0,1.0,95,0.00,,---,0.21,VWS V14.01,2013-07-24 03:56:00,